sensor_id;sensor_type;location;lat;lon;timestamp;P1;durP1;ratioP1;P2;durP2;ratioP2
64598;SDS011;51008;51.504;11.548;2022-12-29T00:03:59;4.90;;;2.00;;
64598;SDS011;51008;51.504;11.548;2022-12-29T00:09:01;3.33;;;1.50;;
64598;SDS011;51008;51.504;11.548;2022-12-29T00:14:02;4.00;;;1.85;;
64598;SDS011;51008;51.504;11.548;2022-12-29T00:19:04;3.92;;;1.70;;
64598;SDS011;51008;51.504;11.548;2022-12-29T00:24:05;3.45;;;1.63;;
64598;SDS011;51008;51.504;11.548;2022-12-29T00:29:09;2.95;;;1.67;;
64598;SDS011;51008;51.504;11.548;2022-12-29T00:34:11;6.82;;;1.83;;
64598;SDS011;51008;51.504;11.548;2022-12-29T00:39:13;5.25;;;2.03;;
64598;SDS011;51008;51.504;11.548;2022-12-29T00:44:17;3.78;;;1.85;;
64598;SDS011;51008;51.504;11.548;2022-12-29T00:49:18;6.93;;;1.95;;
64598;SDS011;51008;51.504;11.548;2022-12-29T00:54:20;3.25;;;1.85;;
64598;SDS011;51008;51.504;11.548;2022-12-29T00:59:21;2.53;;;1.55;;
64598;SDS011;51008;51.504;11.548;2022-12-29T01:04:23;4.10;;;1.90;;
64598;SDS011;51008;51.504;11.548;2022-12-29T01:09:25;2.35;;;1.70;;
64598;SDS011;51008;51.504;11.548;2022-12-29T01:14:26;3.38;;;1.70;;
64598;SDS011;51008;51.504;11.548;2022-12-29T01:19:28;4.32;;;1.60;;
64598;SDS011;51008;51.504;11.548;2022-12-29T01:24:30;4.75;;;1.80;;
64598;SDS011;51008;51.504;11.548;2022-12-29T01:29:31;6.60;;;1.90;;
64598;SDS011;51008;51.504;11.548;2022-12-29T01:34:32;5.90;;;1.92;;
64598;SDS011;51008;51.504;11.548;2022-12-29T01:39:34;2.50;;;1.67;;
64598;SDS011;51008;51.504;11.548;2022-12-29T01:44:45;3.38;;;1.75;;
64598;SDS011;51008;51.504;11.548;2022-12-29T01:49:55;2.70;;;1.55;;
64598;SDS011;51008;51.504;11.548;2022-12-29T01:54:59;5.00;;;2.08;;
64598;SDS011;51008;51.504;11.548;2022-12-29T02:00:06;3.15;;;1.60;;
64598;SDS011;51008;51.504;11.548;2022-12-29T02:05:21;5.22;;;1.88;;
64598;SDS011;51008;51.504;11.548;2022-12-29T02:10:28;3.03;;;1.85;;
64598;SDS011;51008;51.504;11.548;2022-12-29T02:26:27;3.58;;;1.88;;
64598;SDS011;51008;51.504;11.548;2022-12-29T02:37:24;7.22;;;2.00;;
64598;SDS011;51008;51.504;11.548;2022-12-29T02:53:13;3.55;;;1.83;;
64598;SDS011;51008;51.504;11.548;2022-12-29T02:58:19;5.38;;;2.10;;
64598;SDS011;51008;51.504;11.548;2022-12-29T03:03:36;5.40;;;1.95;;
64598;SDS011;51008;51.504;11.548;2022-12-29T03:08:49;4.28;;;2.45;;
64598;SDS011;51008;51.504;11.548;2022-12-29T03:13:54;4.30;;;1.80;;
64598;SDS011;51008;51.504;11.548;2022-12-29T03:19:05;4.25;;;2.10;;
64598;SDS011;51008;51.504;11.548;2022-12-29T03:24:10;2.28;;;1.75;;
64598;SDS011;51008;51.504;11.548;2022-12-29T03:29:13;4.10;;;1.88;;
64598;SDS011;51008;51.504;11.548;2022-12-29T03:34:20;3.35;;;1.90;;
64598;SDS011;51008;51.504;11.548;2022-12-29T03:39:22;2.85;;;1.75;;
64598;SDS011;51008;51.504;11.548;2022-12-29T03:44:58;3.90;;;1.95;;
64598;SDS011;51008;51.504;11.548;2022-12-29T03:49:55;2.90;;;1.77;;
64598;SDS011;51008;51.504;11.548;2022-12-29T03:54:56;3.33;;;1.88;;
64598;SDS011;51008;51.504;11.548;2022-12-29T03:59:58;2.95;;;1.58;;
64598;SDS011;51008;51.504;11.548;2022-12-29T04:04:59;2.63;;;1.40;;
64598;SDS011;51008;51.504;11.548;2022-12-29T04:10:00;2.78;;;1.60;;
64598;SDS011;51008;51.504;11.548;2022-12-29T04:15:02;2.00;;;1.35;;
64598;SDS011;51008;51.504;11.548;2022-12-29T04:20:05;5.68;;;1.60;;
64598;SDS011;51008;51.504;11.548;2022-12-29T04:25:07;4.15;;;1.70;;
64598;SDS011;51008;51.504;11.548;2022-12-29T04:30:08;2.28;;;1.70;;
64598;SDS011;51008;51.504;11.548;2022-12-29T04:35:21;1.65;;;1.42;;
64598;SDS011;51008;51.504;11.548;2022-12-29T04:40:23;2.42;;;1.50;;
64598;SDS011;51008;51.504;11.548;2022-12-29T04:45:24;3.15;;;1.40;;
64598;SDS011;51008;51.504;11.548;2022-12-29T04:50:32;2.53;;;1.65;;
64598;SDS011;51008;51.504;11.548;2022-12-29T04:55:49;2.30;;;1.38;;
64598;SDS011;51008;51.504;11.548;2022-12-29T05:00:52;3.63;;;1.77;;
64598;SDS011;51008;51.504;11.548;2022-12-29T05:10:57;1.70;;;1.10;;
64598;SDS011;51008;51.504;11.548;2022-12-29T05:15:58;3.58;;;1.13;;
64598;SDS011;51008;51.504;11.548;2022-12-29T05:21:00;3.58;;;1.20;;
64598;SDS011;51008;51.504;11.548;2022-12-29T05:26:02;4.00;;;1.75;;
64598;SDS011;51008;51.504;11.548;2022-12-29T05:31:10;3.55;;;1.40;;
64598;SDS011;51008;51.504;11.548;2022-12-29T05:36:12;2.72;;;1.15;;
64598;SDS011;51008;51.504;11.548;2022-12-29T05:41:17;2.60;;;1.30;;
64598;SDS011;51008;51.504;11.548;2022-12-29T05:46:33;4.10;;;1.65;;
64598;SDS011;51008;51.504;11.548;2022-12-29T05:51:57;2.75;;;1.20;;
64598;SDS011;51008;51.504;11.548;2022-12-29T05:56:59;3.10;;;1.45;;
64598;SDS011;51008;51.504;11.548;2022-12-29T06:02:00;1.92;;;1.30;;
64598;SDS011;51008;51.504;11.548;2022-12-29T06:07:02;2.28;;;1.40;;
64598;SDS011;51008;51.504;11.548;2022-12-29T06:12:13;1.35;;;1.20;;
64598;SDS011;51008;51.504;11.548;2022-12-29T06:17:17;2.45;;;1.15;;
64598;SDS011;51008;51.504;11.548;2022-12-29T06:22:18;1.40;;;1.30;;
64598;SDS011;51008;51.504;11.548;2022-12-29T06:27:19;1.92;;;1.38;;
64598;SDS011;51008;51.504;11.548;2022-12-29T06:32:22;2.78;;;1.20;;
64598;SDS011;51008;51.504;11.548;2022-12-29T06:37:27;2.33;;;1.35;;
64598;SDS011;51008;51.504;11.548;2022-12-29T06:42:28;4.25;;;1.50;;
64598;SDS011;51008;51.504;11.548;2022-12-29T06:48:04;4.30;;;1.60;;
64598;SDS011;51008;51.504;11.548;2022-12-29T06:53:05;1.95;;;1.20;;
64598;SDS011;51008;51.504;11.548;2022-12-29T06:58:06;1.85;;;1.30;;
64598;SDS011;51008;51.504;11.548;2022-12-29T07:03:07;3.47;;;1.48;;
64598;SDS011;51008;51.504;11.548;2022-12-29T07:08:08;2.38;;;1.30;;
64598;SDS011;51008;51.504;11.548;2022-12-29T07:13:09;2.30;;;1.38;;
64598;SDS011;51008;51.504;11.548;2022-12-29T07:18:10;2.65;;;1.50;;
64598;SDS011;51008;51.504;11.548;2022-12-29T07:23:11;2.85;;;1.13;;
64598;SDS011;51008;51.504;11.548;2022-12-29T07:28:12;2.45;;;1.40;;
64598;SDS011;51008;51.504;11.548;2022-12-29T07:33:14;3.22;;;1.35;;
64598;SDS011;51008;51.504;11.548;2022-12-29T07:38:15;3.92;;;1.40;;
64598;SDS011;51008;51.504;11.548;2022-12-29T07:43:16;3.60;;;1.50;;
64598;SDS011;51008;51.504;11.548;2022-12-29T07:48:37;3.58;;;1.48;;
64598;SDS011;51008;51.504;11.548;2022-12-29T07:53:38;2.35;;;1.20;;
64598;SDS011;51008;51.504;11.548;2022-12-29T07:58:39;4.65;;;1.58;;
64598;SDS011;51008;51.504;11.548;2022-12-29T08:03:40;1.98;;;1.30;;
64598;SDS011;51008;51.504;11.548;2022-12-29T08:08:41;2.42;;;1.42;;
64598;SDS011;51008;51.504;11.548;2022-12-29T08:13:42;5.90;;;1.60;;
64598;SDS011;51008;51.504;11.548;2022-12-29T08:18:43;2.88;;;1.30;;
64598;SDS011;51008;51.504;11.548;2022-12-29T08:23:45;3.78;;;1.30;;
64598;SDS011;51008;51.504;11.548;2022-12-29T08:28:46;2.05;;;1.40;;
64598;SDS011;51008;51.504;11.548;2022-12-29T08:33:47;2.58;;;1.30;;
64598;SDS011;51008;51.504;11.548;2022-12-29T08:38:48;2.92;;;1.27;;
64598;SDS011;51008;51.504;11.548;2022-12-29T08:43:49;4.20;;;1.33;;
64598;SDS011;51008;51.504;11.548;2022-12-29T08:48:50;3.80;;;1.30;;
64598;SDS011;51008;51.504;11.548;2022-12-29T08:53:52;2.78;;;1.23;;
64598;SDS011;51008;51.504;11.548;2022-12-29T08:58:53;1.77;;;1.05;;
64598;SDS011;51008;51.504;11.548;2022-12-29T09:03:56;1.30;;;1.10;;
64598;SDS011;51008;51.504;11.548;2022-12-29T09:08:57;2.95;;;1.48;;
64598;SDS011;51008;51.504;11.548;2022-12-29T09:13:58;5.55;;;1.63;;
64598;SDS011;51008;51.504;11.548;2022-12-29T09:18:59;2.55;;;1.30;;
64598;SDS011;51008;51.504;11.548;2022-12-29T09:24:01;2.55;;;1.30;;
64598;SDS011;51008;51.504;11.548;2022-12-29T09:29:02;4.95;;;1.42;;
64598;SDS011;51008;51.504;11.548;2022-12-29T09:34:03;3.05;;;1.48;;
64598;SDS011;51008;51.504;11.548;2022-12-29T09:39:04;3.30;;;1.23;;
64598;SDS011;51008;51.504;11.548;2022-12-29T09:44:13;1.52;;;1.20;;
64598;SDS011;51008;51.504;11.548;2022-12-29T09:49:25;2.40;;;1.52;;
64598;SDS011;51008;51.504;11.548;2022-12-29T09:59:54;2.03;;;1.20;;
64598;SDS011;51008;51.504;11.548;2022-12-29T10:04:59;4.55;;;1.58;;
64598;SDS011;51008;51.504;11.548;2022-12-29T10:20:31;1.90;;;1.20;;
64598;SDS011;51008;51.504;11.548;2022-12-29T10:25:38;3.65;;;1.42;;
64598;SDS011;51008;51.504;11.548;2022-12-29T10:30:42;1.77;;;1.40;;
64598;SDS011;51008;51.504;11.548;2022-12-29T10:45:52;3.08;;;1.60;;
64598;SDS011;51008;51.504;11.548;2022-12-29T10:51:01;3.67;;;1.40;;
64598;SDS011;51008;51.504;11.548;2022-12-29T10:56:04;2.92;;;1.55;;
64598;SDS011;51008;51.504;11.548;2022-12-29T11:01:22;3.58;;;1.60;;
64598;SDS011;51008;51.504;11.548;2022-12-29T11:06:32;3.92;;;1.48;;
64598;SDS011;51008;51.504;11.548;2022-12-29T11:11:34;3.38;;;1.58;;
64598;SDS011;51008;51.504;11.548;2022-12-29T11:16:36;4.03;;;1.50;;
64598;SDS011;51008;51.504;11.548;2022-12-29T11:21:38;4.53;;;1.70;;
64598;SDS011;51008;51.504;11.548;2022-12-29T11:26:39;5.55;;;1.70;;
64598;SDS011;51008;51.504;11.548;2022-12-29T11:31:41;4.78;;;1.70;;
64598;SDS011;51008;51.504;11.548;2022-12-29T11:36:47;4.25;;;1.42;;
64598;SDS011;51008;51.504;11.548;2022-12-29T11:41:51;2.70;;;1.48;;
64598;SDS011;51008;51.504;11.548;2022-12-29T11:46:53;3.80;;;1.50;;
64598;SDS011;51008;51.504;11.548;2022-12-29T11:51:55;4.28;;;1.75;;
64598;SDS011;51008;51.504;11.548;2022-12-29T11:56:57;4.68;;;1.70;;
64598;SDS011;51008;51.504;11.548;2022-12-29T12:02:00;5.07;;;1.40;;
64598;SDS011;51008;51.504;11.548;2022-12-29T12:07:27;1.57;;;1.13;;
64598;SDS011;51008;51.504;11.548;2022-12-29T12:12:39;5.32;;;1.90;;
64598;SDS011;51008;51.504;11.548;2022-12-29T12:33:38;2.58;;;1.40;;
64598;SDS011;51008;51.504;11.548;2022-12-29T12:39:05;3.05;;;1.70;;
64598;SDS011;51008;51.504;11.548;2022-12-29T12:44:12;5.60;;;1.63;;
64598;SDS011;51008;51.504;11.548;2022-12-29T12:49:33;3.65;;;1.65;;
64598;SDS011;51008;51.504;11.548;2022-12-29T12:55:36;3.22;;;1.85;;
64598;SDS011;51008;51.504;11.548;2022-12-29T13:00:25;4.70;;;1.83;;
64598;SDS011;51008;51.504;11.548;2022-12-29T13:22:36;1.97;;;1.47;;
64598;SDS011;51008;51.504;11.548;2022-12-29T13:28:04;3.25;;;1.48;;
64598;SDS011;51008;51.504;11.548;2022-12-29T13:38:34;2.83;;;1.33;;
64598;SDS011;51008;51.504;11.548;2022-12-29T13:43:39;3.80;;;1.52;;
64598;SDS011;51008;51.504;11.548;2022-12-29T13:54:15;4.72;;;1.70;;
64598;SDS011;51008;51.504;11.548;2022-12-29T14:10:27;2.60;;;1.38;;
64598;SDS011;51008;51.504;11.548;2022-12-29T14:15:34;3.42;;;2.10;;
64598;SDS011;51008;51.504;11.548;2022-12-29T14:20:46;4.70;;;1.50;;
64598;SDS011;51008;51.504;11.548;2022-12-29T14:41:30;4.95;;;1.10;;
64598;SDS011;51008;51.504;11.548;2022-12-29T14:51:50;7.70;;;1.27;;
64598;SDS011;51008;51.504;11.548;2022-12-29T14:56:56;2.92;;;1.33;;
64598;SDS011;51008;51.504;11.548;2022-12-29T15:02:00;3.40;;;1.08;;
64598;SDS011;51008;51.504;11.548;2022-12-29T15:07:07;1.67;;;1.02;;
64598;SDS011;51008;51.504;11.548;2022-12-29T15:12:32;2.75;;;1.08;;
64598;SDS011;51008;51.504;11.548;2022-12-29T15:17:41;2.80;;;1.25;;
64598;SDS011;51008;51.504;11.548;2022-12-29T15:22:44;2.95;;;1.40;;
64598;SDS011;51008;51.504;11.548;2022-12-29T15:28:01;2.28;;;1.20;;
64598;SDS011;51008;51.504;11.548;2022-12-29T15:33:16;2.05;;;1.38;;
64598;SDS011;51008;51.504;11.548;2022-12-29T15:38:23;2.00;;;1.08;;
64598;SDS011;51008;51.504;11.548;2022-12-29T15:48:55;4.32;;;1.20;;
64598;SDS011;51008;51.504;11.548;2022-12-29T15:53:56;2.90;;;0.95;;
64598;SDS011;51008;51.504;11.548;2022-12-29T15:58:58;6.38;;;1.40;;
64598;SDS011;51008;51.504;11.548;2022-12-29T16:04:02;3.20;;;0.98;;
64598;SDS011;51008;51.504;11.548;2022-12-29T16:09:11;3.20;;;1.17;;
64598;SDS011;51008;51.504;11.548;2022-12-29T16:14:32;3.40;;;1.10;;
64598;SDS011;51008;51.504;11.548;2022-12-29T16:19:39;5.70;;;1.20;;
64598;SDS011;51008;51.504;11.548;2022-12-29T16:24:41;7.63;;;1.20;;
64598;SDS011;51008;51.504;11.548;2022-12-29T16:29:43;4.25;;;1.30;;
64598;SDS011;51008;51.504;11.548;2022-12-29T16:34:44;4.43;;;1.25;;
64598;SDS011;51008;51.504;11.548;2022-12-29T16:39:45;1.83;;;0.85;;
64598;SDS011;51008;51.504;11.548;2022-12-29T16:44:46;8.00;;;1.58;;
64598;SDS011;51008;51.504;11.548;2022-12-29T16:49:48;4.55;;;1.00;;
64598;SDS011;51008;51.504;11.548;2022-12-29T16:54:56;3.38;;;1.13;;
64598;SDS011;51008;51.504;11.548;2022-12-29T16:59:59;3.03;;;0.85;;
64598;SDS011;51008;51.504;11.548;2022-12-29T17:05:03;8.75;;;1.67;;
64598;SDS011;51008;51.504;11.548;2022-12-29T17:10:05;6.68;;;1.10;;
64598;SDS011;51008;51.504;11.548;2022-12-29T17:15:24;5.75;;;1.00;;
64598;SDS011;51008;51.504;11.548;2022-12-29T17:20:28;4.22;;;0.90;;
64598;SDS011;51008;51.504;11.548;2022-12-29T17:25:32;3.67;;;1.10;;
64598;SDS011;51008;51.504;11.548;2022-12-29T17:30:37;7.85;;;1.05;;
64598;SDS011;51008;51.504;11.548;2022-12-29T17:35:40;4.13;;;0.90;;
64598;SDS011;51008;51.504;11.548;2022-12-29T17:40:41;5.70;;;0.95;;
64598;SDS011;51008;51.504;11.548;2022-12-29T17:45:43;8.35;;;0.98;;
64598;SDS011;51008;51.504;11.548;2022-12-29T17:55:49;5.05;;;1.17;;
64598;SDS011;51008;51.504;11.548;2022-12-29T18:00:54;4.25;;;1.30;;
64598;SDS011;51008;51.504;11.548;2022-12-29T18:05:59;4.22;;;1.23;;
64598;SDS011;51008;51.504;11.548;2022-12-29T18:11:01;4.90;;;1.48;;
64598;SDS011;51008;51.504;11.548;2022-12-29T18:16:02;4.20;;;1.02;;
64598;SDS011;51008;51.504;11.548;2022-12-29T18:21:03;6.15;;;1.23;;
64598;SDS011;51008;51.504;11.548;2022-12-29T18:26:26;2.65;;;1.10;;
64598;SDS011;51008;51.504;11.548;2022-12-29T18:31:28;6.35;;;1.73;;
64598;SDS011;51008;51.504;11.548;2022-12-29T18:36:31;5.50;;;1.67;;
64598;SDS011;51008;51.504;11.548;2022-12-29T18:41:33;3.45;;;1.30;;
64598;SDS011;51008;51.504;11.548;2022-12-29T18:46:34;4.40;;;1.45;;
64598;SDS011;51008;51.504;11.548;2022-12-29T18:51:35;5.32;;;1.75;;
64598;SDS011;51008;51.504;11.548;2022-12-29T18:56:36;7.25;;;1.67;;
64598;SDS011;51008;51.504;11.548;2022-12-29T19:01:37;6.80;;;1.65;;
64598;SDS011;51008;51.504;11.548;2022-12-29T19:06:38;7.60;;;1.90;;
64598;SDS011;51008;51.504;11.548;2022-12-29T19:11:39;8.30;;;2.35;;
64598;SDS011;51008;51.504;11.548;2022-12-29T19:16:40;5.35;;;1.60;;
64598;SDS011;51008;51.504;11.548;2022-12-29T19:21:44;5.97;;;1.95;;
64598;SDS011;51008;51.504;11.548;2022-12-29T19:26:46;6.28;;;1.80;;
64598;SDS011;51008;51.504;11.548;2022-12-29T19:31:47;5.30;;;1.80;;
64598;SDS011;51008;51.504;11.548;2022-12-29T19:36:48;4.93;;;1.80;;
64598;SDS011;51008;51.504;11.548;2022-12-29T19:41:49;4.97;;;1.60;;
64598;SDS011;51008;51.504;11.548;2022-12-29T19:46:50;4.53;;;1.45;;
64598;SDS011;51008;51.504;11.548;2022-12-29T19:51:51;4.00;;;1.52;;
64598;SDS011;51008;51.504;11.548;2022-12-29T19:56:52;3.92;;;1.40;;
64598;SDS011;51008;51.504;11.548;2022-12-29T20:01:53;7.57;;;1.60;;
64598;SDS011;51008;51.504;11.548;2022-12-29T20:06:54;8.73;;;1.50;;
64598;SDS011;51008;51.504;11.548;2022-12-29T20:11:55;5.40;;;1.77;;
64598;SDS011;51008;51.504;11.548;2022-12-29T20:16:56;7.18;;;1.77;;
64598;SDS011;51008;51.504;11.548;2022-12-29T20:21:57;4.18;;;1.38;;
64598;SDS011;51008;51.504;11.548;2022-12-29T20:26:59;6.38;;;1.52;;
64598;SDS011;51008;51.504;11.548;2022-12-29T20:32:00;7.68;;;1.55;;
64598;SDS011;51008;51.504;11.548;2022-12-29T20:37:02;6.50;;;1.23;;
64598;SDS011;51008;51.504;11.548;2022-12-29T20:42:03;5.50;;;1.30;;
64598;SDS011;51008;51.504;11.548;2022-12-29T20:47:05;7.18;;;1.27;;
64598;SDS011;51008;51.504;11.548;2022-12-29T20:52:06;3.88;;;1.20;;
64598;SDS011;51008;51.504;11.548;2022-12-29T20:57:07;5.00;;;1.38;;
64598;SDS011;51008;51.504;11.548;2022-12-29T21:02:18;3.80;;;1.27;;
64598;SDS011;51008;51.504;11.548;2022-12-29T21:07:20;7.50;;;1.85;;
64598;SDS011;51008;51.504;11.548;2022-12-29T21:12:21;4.00;;;1.38;;
64598;SDS011;51008;51.504;11.548;2022-12-29T21:17:22;6.57;;;1.65;;
64598;SDS011;51008;51.504;11.548;2022-12-29T21:22:23;4.13;;;1.50;;
64598;SDS011;51008;51.504;11.548;2022-12-29T21:27:24;3.92;;;1.52;;
64598;SDS011;51008;51.504;11.548;2022-12-29T21:32:25;5.28;;;1.70;;
64598;SDS011;51008;51.504;11.548;2022-12-29T21:37:27;7.80;;;2.00;;
64598;SDS011;51008;51.504;11.548;2022-12-29T21:42:28;5.68;;;1.88;;
64598;SDS011;51008;51.504;11.548;2022-12-29T21:47:32;8.98;;;1.70;;
64598;SDS011;51008;51.504;11.548;2022-12-29T21:52:33;8.07;;;1.77;;
64598;SDS011;51008;51.504;11.548;2022-12-29T21:57:35;5.65;;;1.50;;
64598;SDS011;51008;51.504;11.548;2022-12-29T22:02:36;8.30;;;1.60;;
64598;SDS011;51008;51.504;11.548;2022-12-29T22:07:37;6.03;;;1.70;;
64598;SDS011;51008;51.504;11.548;2022-12-29T22:12:39;7.60;;;2.00;;
64598;SDS011;51008;51.504;11.548;2022-12-29T22:17:44;8.25;;;2.00;;
64598;SDS011;51008;51.504;11.548;2022-12-29T22:22:45;13.18;;;1.95;;
64598;SDS011;51008;51.504;11.548;2022-12-29T22:27:47;8.38;;;1.67;;
64598;SDS011;51008;51.504;11.548;2022-12-29T22:32:50;9.55;;;1.67;;
64598;SDS011;51008;51.504;11.548;2022-12-29T22:37:51;5.63;;;2.17;;
64598;SDS011;51008;51.504;11.548;2022-12-29T22:42:52;8.30;;;1.60;;
64598;SDS011;51008;51.504;11.548;2022-12-29T22:47:53;11.45;;;2.13;;
64598;SDS011;51008;51.504;11.548;2022-12-29T22:52:54;8.73;;;1.70;;
64598;SDS011;51008;51.504;11.548;2022-12-29T22:57:55;10.68;;;2.00;;
64598;SDS011;51008;51.504;11.548;2022-12-29T23:02:56;5.47;;;1.60;;
64598;SDS011;51008;51.504;11.548;2022-12-29T23:07:59;9.93;;;1.50;;
64598;SDS011;51008;51.504;11.548;2022-12-29T23:13:00;6.35;;;1.40;;
64598;SDS011;51008;51.504;11.548;2022-12-29T23:18:04;7.95;;;2.25;;
64598;SDS011;51008;51.504;11.548;2022-12-29T23:23:05;6.90;;;1.70;;
64598;SDS011;51008;51.504;11.548;2022-12-29T23:28:07;7.78;;;1.83;;
64598;SDS011;51008;51.504;11.548;2022-12-29T23:33:08;6.40;;;2.00;;
64598;SDS011;51008;51.504;11.548;2022-12-29T23:38:09;10.10;;;2.00;;
64598;SDS011;51008;51.504;11.548;2022-12-29T23:43:10;8.40;;;2.20;;
64598;SDS011;51008;51.504;11.548;2022-12-29T23:48:11;9.82;;;2.22;;
64598;SDS011;51008;51.504;11.548;2022-12-29T23:53:12;8.30;;;1.90;;
64598;SDS011;51008;51.504;11.548;2022-12-29T23:58:14;11.52;;;2.28;;
